Thunder radar more information blitzortung!


Radar de pluja more information rain snow radar


Visita la nostra xarxa de llocs de meteo:

Template documentation
and downloads

And another site



No particular awareness of the weather is required.    There are no Weather-warnings

Pagina Historial Weather Underground text

Diari Resum Juny 20, 2017 Unitats:  Mètric    Imperial   Tant
« Previous Dia
SegĂźent Dia »
Diari Setmana Mensual Anual Personalitzada
  Maxima: Minima: Media:
Temperatura: 32.8 °C 20.2 °C 27.5 °C
Punt de rosada: 19.9 °C 12.3 °C 15.5 °C
Humitat: 82 % 34 % 50 %
Wind Speed: 24.1 km/h 0.0 km/h 9.2 km/h
RĂ fegues de vent: 24.1 km/h - -
Vent:- - SW
Pression baro: 1017.8 hPa 1013.8 hPa -
Precipitacions: 0.0 mm    
Historical Graphs
 
 
Dades de taula per Juny 20, 2017
Temps Temperatura Punt de rosada Pression baro Vent Wind Speed RĂ fegues de vent Humitat Rainfall Rate (Hourly)
00:00 20.9 °C 17.7 °C 1015.8 hPa SW 1.6 km/h 3.2 km/h 82 % 0.0 mm
00:04 23.4 °C 17.6 °C 1017.8 hPa SW 3.7 km/h 3.7 km/h 70 % 0.0 mm
00:10 20.8 °C 17.6 °C 1016.8 hPa SW 1.6 km/h 3.2 km/h 82 % 0.0 mm
00:20 20.7 °C 17.5 °C 1015.8 hPa WSW 1.6 km/h 3.2 km/h 82 % 0.0 mm
00:30 20.6 °C 17.4 °C 1015.8 hPa Calm   3.2 km/h 82 % 0.0 mm
00:40 20.5 °C 17.3 °C 1015.8 hPa WSW 1.6 km/h 1.6 km/h 82 % 0.0 mm
00:50 20.4 °C 17.2 °C 1015.8 hPa Calm   1.6 km/h 82 % 0.0 mm
01:00 20.3 °C 16.9 °C 1015.8 hPa SW 1.6 km/h 1.6 km/h 81 % 0.0 mm
01:10 20.3 °C 16.9 °C 1015.8 hPa SW 1.6 km/h 1.6 km/h 81 % 0.0 mm
01:20 20.4 °C 17.2 °C 1015.8 hPa SSW 1.6 km/h 1.6 km/h 82 % 0.0 mm
01:30 20.3 °C 17.1 °C 1015.8 hPa Calm     82 % 0.0 mm
01:40 20.2 °C 16.8 °C 1015.8 hPa SSE 1.6 km/h 1.6 km/h 81 % 0.0 mm
01:50 20.2 °C 16.8 °C 1015.8 hPa Calm   1.6 km/h 81 % 0.0 mm
02:10 20.6 °C 17.2 °C 1015.8 hPa NNE 1.6 km/h 3.2 km/h 81 % 0.0 mm
02:20 20.8 °C 17.4 °C 1015.8 hPa NE 1.6 km/h 1.6 km/h 81 % 0.0 mm
02:30 20.9 °C 17.5 °C 1015.8 hPa Calm     81 % 0.0 mm
02:40 21.0 °C 17.2 °C 1015.8 hPa NE 1.6 km/h 3.2 km/h 79 % 0.0 mm
02:50 21.3 °C 17.7 °C 1016.8 hPa Calm   3.2 km/h 80 % 0.0 mm
03:00 21.8 °C 18.0 °C 1016.8 hPa SSE 1.6 km/h 1.6 km/h 79 % 0.0 mm
03:10 21.4 °C 17.4 °C 1016.8 hPa SE 1.6 km/h 4.8 km/h 78 % 0.0 mm
03:20 21.9 °C 17.9 °C 1016.8 hPa East 3.2 km/h 4.8 km/h 78 % 0.0 mm
03:30 22.3 °C 18.1 °C 1016.8 hPa ENE 3.2 km/h 3.2 km/h 77 % 0.0 mm
03:40 22.8 °C 18.3 °C 1016.8 hPa East 1.6 km/h 3.2 km/h 76 % 0.0 mm
03:50 23.6 °C 18.9 °C 1016.8 hPa SSW 1.6 km/h 3.2 km/h 75 % 0.0 mm
04:00 24.1 °C 19.2 °C 1016.8 hPa SW 3.2 km/h 3.2 km/h 74 % 0.0 mm
04:10 24.5 °C 19.6 °C 1016.8 hPa SW 1.6 km/h 8.0 km/h 74 % 0.0 mm
04:20 24.7 °C 19.8 °C 1017.8 hPa SW 3.2 km/h 6.4 km/h 74 % 0.0 mm
04:30 25.3 °C 19.9 °C 1017.8 hPa SW 4.8 km/h 8.0 km/h 72 % 0.0 mm
04:40 25.2 °C 19.8 °C 1017.8 hPa SW 4.8 km/h 8.0 km/h 72 % 0.0 mm
04:50 25.4 °C 19.8 °C 1017.8 hPa SW 3.2 km/h 12.9 km/h 71 % 0.0 mm
05:00 25.9 °C 19.3 °C 1017.8 hPa SSW 11.3 km/h 11.3 km/h 67 % 0.0 mm
05:10 26.4 °C 19.6 °C 1017.8 hPa SSW 8.0 km/h 12.9 km/h 66 % 0.0 mm
05:20 26.9 °C 19.5 °C 1017.8 hPa WSW 4.8 km/h 9.7 km/h 64 % 0.0 mm
05:30 27.7 °C 19.5 °C 1017.8 hPa West 4.8 km/h 4.8 km/h 61 % 0.0 mm
05:40 27.7 °C 18.7 °C 1017.8 hPa SW 8.0 km/h 16.1 km/h 58 % 0.0 mm
05:50 28.0 °C 18.7 °C 1017.8 hPa SW 4.8 km/h 12.9 km/h 57 % 0.0 mm
10:56 28.5 °C 18.6 °C 1017.8 hPa SSE 8.7 km/h 9.0 km/h 55 % 0.0 mm
11:01 28.6 °C 18.1 °C 1017.8 hPa SW 7.4 km/h 7.4 km/h 53 % 0.0 mm
11:06 29.1 °C 18.2 °C 1017.8 hPa WSW 16.4 km/h 16.4 km/h 52 % 0.0 mm
11:11 29.0 °C 18.2 °C 1017.8 hPa SW 14.8 km/h 14.8 km/h 52 % 0.0 mm
11:16 28.9 °C 17.7 °C 1017.8 hPa SSE 13.0 km/h 13.0 km/h 51 % 0.0 mm
11:21 29.0 °C 17.5 °C 1017.8 hPa SW 11.1 km/h 11.1 km/h 50 % 0.0 mm
11:26 29.1 °C 17.6 °C 1017.8 hPa SW 11.1 km/h 11.1 km/h 50 % 0.0 mm
11:31 29.5 °C 18.0 °C 1016.8 hPa WSW 7.4 km/h 7.4 km/h 50 % 0.0 mm
11:36 29.9 °C 18.3 °C 1016.8 hPa SW 10.0 km/h 10.0 km/h 50 % 0.0 mm
11:41 29.4 °C 17.6 °C 1016.8 hPa SW 14.8 km/h 14.8 km/h 49 % 0.0 mm
11:46 29.9 °C 18.1 °C 1016.8 hPa WSW 10.3 km/h 10.3 km/h 49 % 0.0 mm
11:51 30.1 °C 18.2 °C 1016.8 hPa SSW 11.1 km/h 11.1 km/h 49 % 0.0 mm
11:56 30.0 °C 17.8 °C 1016.8 hPa SW 13.0 km/h 13.0 km/h 48 % 0.0 mm
12:01 30.0 °C 17.8 °C 1017.8 hPa West 9.3 km/h 9.3 km/h 48 % 0.0 mm
12:06 30.1 °C 17.6 °C 1017.8 hPa WSW 16.4 km/h 16.4 km/h 47 % 0.0 mm
12:11 30.0 °C 17.4 °C 1017.8 hPa SW 13.0 km/h 13.0 km/h 47 % 0.0 mm
12:16 30.6 °C 18.0 °C 1016.8 hPa South 14.8 km/h 14.8 km/h 47 % 0.0 mm
12:21 30.5 °C 17.6 °C 1016.8 hPa West 14.8 km/h 14.8 km/h 46 % 0.0 mm
12:26 30.4 °C 17.5 °C 1016.8 hPa SW 11.1 km/h 11.1 km/h 46 % 0.0 mm
12:31 30.8 °C 17.8 °C 1016.8 hPa SSW 9.3 km/h 9.3 km/h 46 % 0.0 mm
12:36 30.4 °C 17.1 °C 1016.8 hPa SSW 18.5 km/h 18.5 km/h 45 % 0.0 mm
12:41 31.1 °C 17.8 °C 1016.8 hPa SW 9.3 km/h 9.3 km/h 45 % 0.0 mm
12:46 31.4 °C 17.7 °C 1016.8 hPa SW 9.3 km/h 9.3 km/h 44 % 0.0 mm
12:51 31.7 °C 17.6 °C 1016.8 hPa SSW 9.3 km/h 9.3 km/h 43 % 0.0 mm
12:56 31.2 °C 16.8 °C 1016.8 hPa South 14.8 km/h 14.8 km/h 42 % 0.0 mm
13:01 31.2 °C 17.1 °C 1016.8 hPa SW 14.8 km/h 14.8 km/h 43 % 0.0 mm
13:06 32.2 °C 18.1 °C 1016.8 hPa SW 9.3 km/h 9.3 km/h 43 % 0.0 mm
13:11 31.9 °C 17.4 °C 1016.8 hPa South 13.0 km/h 13.0 km/h 42 % 0.0 mm
13:16 32.2 °C 17.7 °C 1015.8 hPa SW 9.3 km/h 9.3 km/h 42 % 0.0 mm
13:21 32.1 °C 17.2 °C 1015.8 hPa WSW 13.0 km/h 13.0 km/h 41 % 0.0 mm
13:26 31.5 °C 16.3 °C 1015.8 hPa SW 11.1 km/h 11.1 km/h 40 % 0.0 mm
13:31 32.0 °C 16.7 °C 1015.8 hPa SSE 11.1 km/h 11.1 km/h 40 % 0.0 mm
13:36 32.0 °C 16.7 °C 1015.8 hPa SW 10.0 km/h 10.0 km/h 40 % 0.0 mm
13:41 31.6 °C 16.3 °C 1015.8 hPa ESE 14.8 km/h 14.8 km/h 40 % 0.0 mm
13:46 31.8 °C 16.6 °C 1015.8 hPa South 7.9 km/h 7.9 km/h 40 % 0.0 mm
13:51 32.4 °C 17.1 °C 1015.8 hPa SSW 13.0 km/h 13.0 km/h 40 % 0.0 mm
13:56 31.9 °C 15.8 °C 1015.8 hPa SSW 19.8 km/h 19.8 km/h 38 % 0.0 mm
14:01 31.9 °C 15.8 °C 1015.8 hPa SSW 17.5 km/h 17.5 km/h 38 % 0.0 mm
14:06 32.0 °C 15.9 °C 1015.8 hPa SW 13.0 km/h 13.0 km/h 38 % 0.0 mm
14:11 32.6 °C 16.4 °C 1015.8 hPa SW 9.3 km/h 9.3 km/h 38 % 0.0 mm
14:16 32.7 °C 16.5 °C 1014.8 hPa SW 9.3 km/h 9.3 km/h 38 % 0.0 mm
14:21 31.9 °C 15.4 °C 1014.8 hPa SW 18.5 km/h 18.5 km/h 37 % 0.0 mm
14:26 32.2 °C 15.7 °C 1014.8 hPa SW 14.8 km/h 14.8 km/h 37 % 0.0 mm
14:31 32.1 °C 15.6 °C 1014.8 hPa SSE 16.7 km/h 16.7 km/h 37 % 0.0 mm
14:36 32.4 °C 15.8 °C 1014.8 hPa SE 16.7 km/h 16.7 km/h 37 % 0.0 mm
14:41 32.5 °C 16.3 °C 1014.8 hPa SSW 18.5 km/h 18.5 km/h 38 % 0.0 mm
14:46 32.8 °C 16.6 °C 1014.8 hPa South 11.4 km/h 11.4 km/h 38 % 0.0 mm
14:51 32.8 °C 16.2 °C 1014.8 hPa SW 9.3 km/h 9.3 km/h 37 % 0.0 mm
14:56 32.6 °C 16.0 °C 1014.8 hPa SSW 13.0 km/h 13.0 km/h 37 % 0.0 mm
15:01 32.2 °C 15.7 °C 1015.8 hPa SSW 11.1 km/h 11.1 km/h 37 % 0.0 mm
15:06 32.3 °C 15.8 °C 1015.8 hPa SSW 13.0 km/h 13.0 km/h 37 % 0.0 mm
15:11 32.1 °C 15.6 °C 1015.8 hPa SW 11.1 km/h 11.1 km/h 37 % 0.0 mm
15:16 32.3 °C 15.8 °C 1015.8 hPa West 13.0 km/h 13.0 km/h 37 % 0.0 mm
15:21 32.7 °C 16.1 °C 1015.8 hPa South 18.5 km/h 18.5 km/h 37 % 0.0 mm
15:26 32.4 °C 15.8 °C 1015.8 hPa SSW 13.0 km/h 13.0 km/h 37 % 0.0 mm
15:31 32.5 °C 15.9 °C 1015.8 hPa SW 17.2 km/h 17.2 km/h 37 % 0.0 mm
15:36 32.4 °C 15.4 °C 1015.8 hPa South 20.4 km/h 20.4 km/h 36 % 0.0 mm
15:41 32.6 °C 15.6 °C 1015.8 hPa SSW 20.9 km/h 20.9 km/h 36 % 0.0 mm
15:46 32.2 °C 14.8 °C 1015.8 hPa SW 24.1 km/h 24.1 km/h 35 % 0.0 mm
15:51 32.8 °C 15.3 °C 1015.8 hPa WSW 11.1 km/h 11.1 km/h 35 % 0.0 mm
15:56 32.7 °C 15.7 °C 1015.8 hPa South 9.3 km/h 9.3 km/h 36 % 0.0 mm
16:01 32.7 °C 15.2 °C 1015.8 hPa SSE 14.8 km/h 14.8 km/h 35 % 0.0 mm
16:06 32.2 °C 14.3 °C 1015.8 hPa SW 16.1 km/h 16.1 km/h 34 % 0.0 mm
16:11 32.1 °C 14.7 °C 1015.8 hPa SW 16.7 km/h 16.7 km/h 35 % 0.0 mm
16:16 32.4 °C 15.0 °C 1015.8 hPa West 15.1 km/h 15.1 km/h 35 % 0.0 mm
16:21 32.5 °C 15.5 °C 1015.8 hPa SW 13.0 km/h 13.0 km/h 36 % 0.0 mm
16:26 32.3 °C 14.9 °C 1015.8 hPa SW 14.8 km/h 14.8 km/h 35 % 0.0 mm
16:31 32.2 °C 14.3 °C 1014.8 hPa SSW 22.2 km/h 22.2 km/h 34 % 0.0 mm
16:36 32.4 °C 15.0 °C 1014.8 hPa SSW 9.3 km/h 9.3 km/h 35 % 0.0 mm
16:41 32.1 °C 14.3 °C 1014.8 hPa SW 16.7 km/h 16.7 km/h 34 % 0.0 mm
16:46 31.8 °C 14.4 °C 1014.8 hPa SW 20.4 km/h 20.4 km/h 35 % 0.0 mm
16:51 32.1 °C 14.3 °C 1014.8 hPa SW 12.6 km/h 12.6 km/h 34 % 0.0 mm
16:56 31.8 °C 14.4 °C 1014.8 hPa SSW 16.7 km/h 16.7 km/h 35 % 0.0 mm
17:01 31.8 °C 14.4 °C 1014.8 hPa South 11.1 km/h 11.1 km/h 35 % 0.0 mm
17:11 31.9 °C 14.6 °C 1014.8 hPa SW 11.1 km/h 11.1 km/h 35 % 0.0 mm
17:16 31.7 °C 13.9 °C 1014.8 hPa WSW 18.5 km/h 18.5 km/h 34 % 0.0 mm
17:21 31.7 °C 14.3 °C 1014.8 hPa West 9.3 km/h 9.3 km/h 35 % 0.0 mm
17:26 31.7 °C 14.3 °C 1014.8 hPa SW 9.3 km/h 9.3 km/h 35 % 0.0 mm
17:28 31.6 °C 14.3 °C 1014.8 hPa SW 14.8 km/h 14.8 km/h 35 % 0.0 mm
17:33 31.7 °C 14.3 °C 1014.8 hPa South 9.3 km/h 9.3 km/h 35 % 0.0 mm
17:38 31.5 °C 14.2 °C 1014.8 hPa SSW 14.8 km/h 14.8 km/h 35 % 0.0 mm
17:43 31.3 °C 13.6 °C 1014.8 hPa SW 20.1 km/h 20.1 km/h 34 % 0.0 mm
17:48 31.5 °C 13.7 °C 1014.8 hPa SW 15.6 km/h 15.6 km/h 34 % 0.0 mm
17:53 31.3 °C 14.0 °C 1014.8 hPa SSW 13.0 km/h 13.0 km/h 35 % 0.0 mm
17:58 31.5 °C 14.2 °C 1014.8 hPa SW 13.0 km/h 13.0 km/h 35 % 0.0 mm
18:03 31.1 °C 13.8 °C 1014.8 hPa SSW 14.8 km/h 14.8 km/h 35 % 0.0 mm
18:08 31.4 °C 14.1 °C 1014.8 hPa SW 13.0 km/h 13.0 km/h 35 % 0.0 mm
18:13 31.4 °C 14.1 °C 1014.8 hPa SSW 15.1 km/h 15.1 km/h 35 % 0.0 mm
18:18 31.1 °C 13.8 °C 1014.8 hPa SSW 18.5 km/h 18.5 km/h 35 % 0.0 mm
18:23 30.9 °C 14.1 °C 1014.8 hPa WSW 13.0 km/h 13.0 km/h 36 % 0.0 mm
18:24 30.9 °C 14.1 °C 1014.8 hPa WSW 13.0 km/h 13.0 km/h 36 % 0.0 mm
18:29 30.8 °C 14.0 °C 1014.8 hPa SW 9.3 km/h 9.3 km/h 36 % 0.0 mm
18:34 30.7 °C 13.9 °C 1014.8 hPa SSW 9.3 km/h 9.3 km/h 36 % 0.0 mm
18:39 30.7 °C 14.3 °C 1014.8 hPa SSW 12.2 km/h 12.2 km/h 37 % 0.0 mm
18:44 30.5 °C 14.2 °C 1014.8 hPa SW 5.6 km/h 8.7 km/h 37 % 0.0 mm
18:49 30.5 °C 14.2 °C 1014.8 hPa SSW 13.0 km/h 13.0 km/h 37 % 0.0 mm
18:54 30.3 °C 14.0 °C 1014.8 hPa SSW 16.7 km/h 16.7 km/h 37 % 0.0 mm
18:59 30.2 °C 13.9 °C 1014.8 hPa SSW 11.4 km/h 11.4 km/h 37 % 0.0 mm
19:04 30.0 °C 13.7 °C 1014.8 hPa WSW 16.9 km/h 16.9 km/h 37 % 0.0 mm
19:09 29.6 °C 13.4 °C 1014.8 hPa SW 14.8 km/h 14.8 km/h 37 % 0.0 mm
19:14 29.6 °C 13.4 °C 1014.8 hPa SW 16.7 km/h 16.7 km/h 37 % 0.0 mm
19:19 29.3 °C 13.1 °C 1014.8 hPa SW 16.7 km/h 16.7 km/h 37 % 0.0 mm
19:20 23.3 °C 14.8 °C 1015.8 hPa WSW 3.2 km/h 4.8 km/h 59 % 0.0 mm
19:24 29.1 °C 12.9 °C 1014.8 hPa SW 13.0 km/h 13.0 km/h 37 % 0.0 mm
19:29 29.0 °C 12.8 °C 1014.8 hPa WSW 11.4 km/h 11.4 km/h 37 % 0.0 mm
19:30 23.2 °C 15.0 °C 1015.8 hPa SW 4.8 km/h 6.4 km/h 60 % 0.0 mm
19:34 28.8 °C 13.4 °C 1014.8 hPa West 18.5 km/h 18.5 km/h 39 % 0.0 mm
19:39 28.7 °C 13.4 °C 1014.8 hPa SW 13.0 km/h 13.0 km/h 39 % 0.0 mm
19:40 23.1 °C 15.2 °C 1015.8 hPa SW 4.8 km/h 4.8 km/h 61 % 0.0 mm
19:44 28.6 °C 13.3 °C 1014.8 hPa SSW 9.3 km/h 9.3 km/h 39 % 0.0 mm
19:49 28.5 °C 13.2 °C 1014.8 hPa SW 16.7 km/h 16.7 km/h 39 % 0.0 mm
19:50 23.0 °C 15.1 °C 1015.8 hPa SW 4.8 km/h 4.8 km/h 61 % 0.0 mm
19:54 28.5 °C 13.2 °C 1014.8 hPa SSW 7.4 km/h 7.4 km/h 39 % 0.0 mm
19:59 28.4 °C 13.1 °C 1014.8 hPa WSW 9.3 km/h 10.0 km/h 39 % 0.0 mm
20:00 22.9 °C 15.2 °C 1015.8 hPa WSW 3.2 km/h 4.8 km/h 62 % 0.0 mm
20:04 28.2 °C 12.9 °C 1014.8 hPa South 20.4 km/h 20.4 km/h 39 % 0.0 mm
20:09 28.1 °C 12.8 °C 1014.8 hPa WSW 13.0 km/h 13.0 km/h 39 % 0.0 mm
20:10 22.8 °C 15.4 °C 1015.8 hPa WSW 3.2 km/h 4.8 km/h 63 % 0.0 mm
20:14 27.9 °C 12.7 °C 1014.8 hPa SSE 13.7 km/h 13.7 km/h 39 % 0.0 mm
20:19 27.8 °C 12.9 °C 1014.8 hPa SW 11.1 km/h 11.1 km/h 40 % 0.0 mm
20:20 22.7 °C 15.3 °C 1015.8 hPa WSW 3.2 km/h 3.2 km/h 63 % 0.0 mm
20:24 27.8 °C 12.9 °C 1014.8 hPa WSW 11.1 km/h 11.1 km/h 40 % 0.0 mm
20:29 27.7 °C 12.9 °C 1014.8 hPa WSW 5.6 km/h 5.8 km/h 40 % 0.0 mm
20:30 22.6 °C 15.4 °C 1015.8 hPa WSW 3.2 km/h 3.2 km/h 64 % 0.0 mm
20:34 27.6 °C 12.8 °C 1014.8 hPa SW 7.4 km/h 7.4 km/h 40 % 0.0 mm
20:39 27.5 °C 12.7 °C 1014.8 hPa SW 9.3 km/h 9.3 km/h 40 % 0.0 mm
20:44 27.4 °C 12.6 °C 1014.8 hPa WSW 5.0 km/h 5.0 km/h 40 % 0.0 mm
20:45 22.5 °C 15.6 °C 1015.8 hPa SW 3.2 km/h 6.4 km/h 65 % 0.0 mm
20:49 27.3 °C 12.5 °C 1014.8 hPa WSW 7.6 km/h 7.6 km/h 40 % 0.0 mm
20:54 27.1 °C 12.3 °C 1014.8 hPa SW 7.4 km/h 7.4 km/h 40 % 0.0 mm
20:55 22.4 °C 15.5 °C 1014.8 hPa WSW 3.2 km/h 4.8 km/h 65 % 0.0 mm
20:59 27.0 °C 12.6 °C 1014.8 hPa West 9.3 km/h 9.3 km/h 41 % 0.0 mm
21:04 26.9 °C 12.9 °C 1014.8 hPa SW 9.3 km/h 9.3 km/h 42 % 0.0 mm
21:05 22.4 °C 15.7 °C 1014.8 hPa WSW 1.6 km/h 4.8 km/h 66 % 0.0 mm
21:09 26.7 °C 12.7 °C 1014.8 hPa SW 7.4 km/h 7.4 km/h 42 % 0.0 mm
21:14 26.6 °C 13.0 °C 1014.8 hPa SW 7.4 km/h 7.4 km/h 43 % 0.0 mm
21:15 22.3 °C 15.7 °C 1015.8 hPa WSW 3.2 km/h 6.4 km/h 66 % 0.0 mm
21:19 26.5 °C 12.9 °C 1014.8 hPa South 13.0 km/h 13.0 km/h 43 % 0.0 mm
21:24 26.3 °C 12.7 °C 1014.8 hPa SW 9.3 km/h 9.3 km/h 43 % 0.0 mm
21:25 22.3 °C 15.9 °C 1015.8 hPa WSW 3.2 km/h 4.8 km/h 67 % 0.0 mm
21:29 26.2 °C 13.0 °C 1013.8 hPa SW 9.3 km/h 9.3 km/h 44 % 0.0 mm
21:34 26.1 °C 12.9 °C 1013.8 hPa SW 5.6 km/h 5.6 km/h 44 % 0.0 mm
21:35 22.2 °C 15.8 °C 1015.8 hPa WSW 1.6 km/h 4.8 km/h 67 % 0.0 mm
21:39 26.0 °C 13.2 °C 1013.8 hPa WSW 11.1 km/h 11.1 km/h 45 % 0.0 mm
21:44 25.9 °C 13.1 °C 1014.8 hPa SSW 7.6 km/h 7.6 km/h 45 % 0.0 mm
21:45 22.1 °C 15.7 °C 1015.8 hPa West 3.2 km/h 4.8 km/h 67 % 0.0 mm
21:49 25.8 °C 12.9 °C 1014.8 hPa SSW 3.7 km/h 3.7 km/h 45 % 0.0 mm
21:54 25.7 °C 13.2 °C 1014.8 hPa SW 7.4 km/h 7.4 km/h 46 % 0.0 mm
21:59 25.6 °C 13.1 °C 1014.8 hPa SW 7.4 km/h 7.4 km/h 46 % 0.0 mm
22:04 25.5 °C 13.1 °C 1014.8 hPa SW 5.6 km/h 5.6 km/h 46 % 0.0 mm
22:05 21.8 °C 15.8 °C 1014.8 hPa WSW 3.2 km/h 4.8 km/h 69 % 0.0 mm
22:09 25.4 °C 13.3 °C 1014.8 hPa SW 7.4 km/h 7.4 km/h 47 % 0.0 mm
22:10 21.7 °C 15.8 °C 1014.8 hPa WSW 3.2 km/h 4.8 km/h 69 % 0.0 mm
22:14 25.3 °C 13.2 °C 1014.8 hPa SW 7.4 km/h 7.4 km/h 47 % 0.0 mm
22:15 21.7 °C 15.8 °C 1014.8 hPa SW 3.2 km/h 4.8 km/h 69 % 0.0 mm
22:19 25.2 °C 13.4 °C 1014.8 hPa WSW 5.8 km/h 5.8 km/h 48 % 0.0 mm
22:24 25.1 °C 13.3 °C 1014.8 hPa SSW 13.0 km/h 13.0 km/h 48 % 0.0 mm
22:25 21.6 °C 15.4 °C 1014.8 hPa SW 3.2 km/h 3.2 km/h 68 % 0.0 mm
22:29 25.0 °C 13.6 °C 1014.8 hPa WSW 5.6 km/h 5.6 km/h 49 % 0.0 mm
22:34 24.9 °C 13.8 °C 1014.8 hPa West 11.1 km/h 11.1 km/h 50 % 0.0 mm
22:35 21.5 °C 15.3 °C 1014.8 hPa SW 3.2 km/h 4.8 km/h 68 % 0.0 mm
22:39 24.9 °C 14.1 °C 1014.8 hPa West 5.6 km/h 5.6 km/h 51 % 0.0 mm
22:44 24.8 °C 14.0 °C 1014.8 hPa WSW 3.9 km/h 3.9 km/h 51 % 0.0 mm
22:45 21.5 °C 15.1 °C 1014.8 hPa WSW 1.6 km/h 4.8 km/h 67 % 0.0 mm
22:49 24.8 °C 14.0 °C 1014.8 hPa SSW 3.7 km/h 3.7 km/h 51 % 0.0 mm
22:54 24.7 °C 14.2 °C 1014.8 hPa West 3.7 km/h 3.7 km/h 52 % 0.0 mm
22:55 21.6 °C 15.0 °C 1013.8 hPa WSW 3.2 km/h 3.2 km/h 66 % 0.0 mm
22:59 24.6 °C 14.1 °C 1015.8 hPa SW 5.6 km/h 5.6 km/h 52 % 0.0 mm
23:04 24.5 °C 14.0 °C 1015.8 hPa SSW 5.6 km/h 5.6 km/h 52 % 0.0 mm
23:05 21.6 °C 14.7 °C 1013.8 hPa WSW 3.2 km/h 6.4 km/h 65 % 0.0 mm
23:09 24.4 °C 14.2 °C 1015.8 hPa WSW 9.3 km/h 9.3 km/h 53 % 0.0 mm
23:14 24.3 °C 14.1 °C 1015.8 hPa SW 6.4 km/h 6.4 km/h 53 % 0.0 mm
23:15 21.6 °C 14.5 °C 1013.8 hPa WSW 3.2 km/h 4.8 km/h 64 % 0.0 mm
23:19 24.3 °C 14.4 °C 1015.8 hPa SW 5.8 km/h 5.8 km/h 54 % 0.0 mm
23:24 24.1 °C 14.2 °C 1015.8 hPa SW 7.4 km/h 7.4 km/h 54 % 0.0 mm
23:25 21.7 °C 14.3 °C 1013.8 hPa WSW 4.8 km/h 4.8 km/h 63 % 0.0 mm
23:29 24.1 °C 14.5 °C 1015.8 hPa West 5.6 km/h 5.6 km/h 55 % 0.0 mm
23:34 24.0 °C 14.4 °C 1015.8 hPa SW 5.6 km/h 5.6 km/h 55 % 0.0 mm
23:35 21.8 °C 14.2 °C 1013.8 hPa WSW 3.2 km/h 4.8 km/h 62 % 0.0 mm
23:39 23.9 °C 14.6 °C 1015.8 hPa SW 2.6 km/h 3.9 km/h 56 % 0.0 mm
23:44 23.8 °C 14.8 °C 1014.8 hPa WSW 3.9 km/h 3.9 km/h 57 % 0.0 mm
23:45 21.9 °C 14.1 °C 1013.8 hPa West 4.8 km/h 4.8 km/h 61 % 0.0 mm
23:49 23.8 °C 14.8 °C 1014.8 hPa WSW 5.6 km/h 5.6 km/h 57 % 0.0 mm
23:54 23.7 °C 14.9 °C 1014.8 hPa SW 5.6 km/h 5.6 km/h 58 % 0.0 mm
23:55 22.0 °C 13.9 °C 1013.8 hPa West 3.2 km/h 6.4 km/h 60 % 0.0 mm
23:59 23.6 °C 14.8 °C 1015.8 hPa WSW 7.4 km/h 7.4 km/h 58 % 0.0 mm
Meteo Sesrovires
Elogis d' Weather Underground - 3.75 mb

Guio original per  Jim McMurry - jmcmurry@mwt.net Adaptat per a la plantilla per  Wim van der Kuil - Leuven-Template.eu

Trobareu la nostra informacio del temps tambe a:

Weather Underground

AWEKAS